AUA153D LOWW-LSGG
Flight info
| Callsign | AUA153D |
|---|---|
| Flight time | N/A |
| Altitude | 34000 |
| Route | OSPEN DCT ABRUK DCT SETAL DCT DETSA/N0456F350 DCT SRN/N0369F180 L615 TERSI/N0390F220 L615 BANKO |
| Aircraft | E195/M-SDE3GILORVW/S |
Departure
| Time | 2026-05-07 13:16 |
|---|---|
| Airport | Vienna International Airport (LOWW) |
Arrival
| Time | N/A |
|---|---|
| Airport | Geneva International Airport (LSGG) |
| Time | Latitude | Longitude | Altitude | Speed | Heading |
|---|---|---|---|---|---|
| 2026-05-07 12:42 | 48.11668 | 16.56897 | 604 ft | 0 kts | 27° |
| 2026-05-07 13:07 | 48.11669 | 16.56898 | 604 ft | 0 kts | 27° |
| 2026-05-07 13:08 | 48.11671 | 16.56899 | 604 ft | 0 kts | 27° |
| 2026-05-07 13:08 | 48.11661 | 16.56892 | 604 ft | 2 kts | 27° |
| 2026-05-07 13:08 | 48.11648 | 16.56882 | 605 ft | 2 kts | 27° |
| 2026-05-07 13:08 | 48.11635 | 16.56872 | 604 ft | 2 kts | 27° |
| 2026-05-07 13:09 | 48.11621 | 16.56862 | 604 ft | 2 kts | 27° |
| 2026-05-07 13:09 | 48.11610 | 16.56847 | 605 ft | 2 kts | 68° |
| 2026-05-07 13:09 | 48.11609 | 16.56825 | 604 ft | 1 kts | 110° |
| 2026-05-07 13:09 | 48.11611 | 16.56818 | 604 ft | 0 kts | 117° |
| 2026-05-07 13:11 | 48.11610 | 16.56822 | 604 ft | 1 kts | 117° |
| 2026-05-07 13:12 | 48.11599 | 16.56858 | 604 ft | 6 kts | 115° |
| 2026-05-07 13:12 | 48.11570 | 16.56948 | 604 ft | 12 kts | 116° |
| 2026-05-07 13:12 | 48.11523 | 16.57090 | 604 ft | 17 kts | 116° |
| 2026-05-07 13:12 | 48.11465 | 16.57270 | 602 ft | 16 kts | 116° |
| 2026-05-07 13:13 | 48.11415 | 16.57383 | 600 ft | 12 kts | 160° |
| 2026-05-07 13:13 | 48.11332 | 16.57347 | 601 ft | 13 kts | 206° |
| 2026-05-07 13:13 | 48.11246 | 16.57287 | 602 ft | 13 kts | 194° |
| 2026-05-07 13:13 | 48.11180 | 16.57364 | 601 ft | 13 kts | 110° |
| 2026-05-07 13:14 | 48.11138 | 16.57495 | 598 ft | 11 kts | 122° |
| 2026-05-07 13:14 | 48.11071 | 16.57524 | 598 ft | 11 kts | 203° |
| 2026-05-07 13:14 | 48.10992 | 16.57468 | 599 ft | 13 kts | 206° |
| 2026-05-07 13:14 | 48.10956 | 16.57408 | 601 ft | 6 kts | 286° |
| 2026-05-07 13:15 | 48.10957 | 16.57402 | 601 ft | 0 kts | 295° |
| 2026-05-07 13:15 | 48.10958 | 16.57400 | 601 ft | 1 kts | 295° |
| 2026-05-07 13:15 | 48.11046 | 16.57128 | 601 ft | 65 kts | 296° |
| 2026-05-07 13:15 | 48.11336 | 16.56231 | 590 ft | 126 kts | 296° |
| 2026-05-07 13:16 | 48.11806 | 16.54811 | 644 ft | 167 kts | 296° |
| 2026-05-07 13:16 | 48.12304 | 16.53247 | 1149 ft | 169 kts | 294° |
| 2026-05-07 13:16 | 48.12348 | 16.51509 | 1652 ft | 174 kts | 249° |
| 2026-05-07 13:16 | 48.11554 | 16.50083 | 2138 ft | 189 kts | 214° |
| 2026-05-07 13:17 | 48.10315 | 16.49226 | 2676 ft | 205 kts | 203° |
| 2026-05-07 13:17 | 48.09031 | 16.48261 | 3430 ft | 209 kts | 215° |
| 2026-05-07 13:17 | 48.07701 | 16.46852 | 3655 ft | 245 kts | 221° |
| 2026-05-07 13:17 | 48.06266 | 16.45152 | 4229 ft | 264 kts | 220° |
| 2026-05-07 13:18 | 48.04812 | 16.43357 | 5135 ft | 268 kts | 221° |
| 2026-05-07 13:18 | 48.03350 | 16.41495 | 6010 ft | 273 kts | 222° |
| 2026-05-07 13:18 | 48.01859 | 16.39569 | 6892 ft | 276 kts | 223° |
| 2026-05-07 13:18 | 48.00647 | 16.37324 | 7657 ft | 278 kts | 248° |
| 2026-05-07 13:19 | 47.99935 | 16.34606 | 8563 ft | 277 kts | 249° |
| 2026-05-07 13:19 | 47.99210 | 16.31910 | 9368 ft | 279 kts | 249° |
| 2026-05-07 13:19 | 47.98486 | 16.29229 | 10095 ft | 283 kts | 249° |
| 2026-05-07 13:19 | 47.97741 | 16.26476 | 10801 ft | 287 kts | 249° |
| 2026-05-07 13:20 | 47.97145 | 16.24282 | 11270 ft | 293 kts | 249° |
| 2026-05-07 13:20 | 47.96348 | 16.21348 | 11845 ft | 302 kts | 249° |
| 2026-05-07 13:20 | 47.95536 | 16.18362 | 12414 ft | 310 kts | 249° |
| 2026-05-07 13:20 | 47.94684 | 16.15237 | 13098 ft | 314 kts | 249° |
| 2026-05-07 13:21 | 47.93833 | 16.12120 | 13846 ft | 315 kts | 250° |
| 2026-05-07 13:21 | 47.93628 | 16.11368 | 14014 ft | 316 kts | 249° |
| 2026-05-07 13:21 | 47.92761 | 16.08191 | 14599 ft | 322 kts | 249° |
| 2026-05-07 13:21 | 47.91887 | 16.04999 | 15264 ft | 325 kts | 249° |
| 2026-05-07 13:22 | 47.91021 | 16.01840 | 15924 ft | 327 kts | 249° |
| 2026-05-07 13:22 | 47.90147 | 15.98653 | 16555 ft | 330 kts | 249° |
| 2026-05-07 13:22 | 47.89256 | 15.95411 | 17181 ft | 332 kts | 249° |
| 2026-05-07 13:22 | 47.88370 | 15.92189 | 17785 ft | 335 kts | 249° |
| 2026-05-07 13:23 | 47.87471 | 15.88926 | 18379 ft | 337 kts | 249° |
| 2026-05-07 13:23 | 47.86563 | 15.85635 | 18962 ft | 340 kts | 249° |
| 2026-05-07 13:23 | 47.85643 | 15.82307 | 19536 ft | 342 kts | 249° |
| 2026-05-07 13:23 | 47.84728 | 15.78999 | 20090 ft | 344 kts | 249° |
| 2026-05-07 13:24 | 47.83790 | 15.75613 | 20640 ft | 347 kts | 249° |
| 2026-05-07 13:24 | 47.82839 | 15.72185 | 21176 ft | 349 kts | 249° |
| 2026-05-07 13:24 | 47.81894 | 15.68784 | 21688 ft | 351 kts | 249° |
| 2026-05-07 13:24 | 47.80927 | 15.65310 | 22191 ft | 354 kts | 249° |
| 2026-05-07 13:25 | 47.79961 | 15.61844 | 22675 ft | 356 kts | 249° |
| 2026-05-07 13:25 | 47.79001 | 15.58403 | 23140 ft | 358 kts | 249° |
| 2026-05-07 13:25 | 47.78027 | 15.54917 | 23595 ft | 360 kts | 249° |
| 2026-05-07 13:25 | 47.77071 | 15.51499 | 24023 ft | 362 kts | 249° |
| 2026-05-07 13:26 | 47.76103 | 15.48045 | 24443 ft | 364 kts | 249° |
| 2026-05-07 13:26 | 47.75114 | 15.44522 | 24855 ft | 367 kts | 249° |
| 2026-05-07 13:26 | 47.74141 | 15.41060 | 25250 ft | 368 kts | 249° |
| 2026-05-07 13:26 | 47.73152 | 15.37547 | 25637 ft | 370 kts | 249° |
| 2026-05-07 13:27 | 47.72146 | 15.33980 | 26016 ft | 372 kts | 248° |
| 2026-05-07 13:27 | 47.71111 | 15.30312 | 26397 ft | 374 kts | 248° |
| 2026-05-07 13:27 | 47.70076 | 15.26651 | 26769 ft | 376 kts | 248° |
| 2026-05-07 13:27 | 47.69031 | 15.22964 | 27133 ft | 378 kts | 248° |
| 2026-05-07 13:28 | 47.68014 | 15.19375 | 27472 ft | 380 kts | 248° |
| 2026-05-07 13:28 | 47.66983 | 15.15747 | 27800 ft | 382 kts | 248° |
| 2026-05-07 13:28 | 47.65957 | 15.12138 | 28125 ft | 383 kts | 248° |
| 2026-05-07 13:28 | 47.64925 | 15.08516 | 28439 ft | 385 kts | 248° |
| 2026-05-07 13:29 | 47.63888 | 15.04882 | 28739 ft | 387 kts | 248° |
| 2026-05-07 13:29 | 47.62828 | 15.01173 | 29042 ft | 388 kts | 248° |
| 2026-05-07 13:29 | 47.61773 | 14.97487 | 29335 ft | 390 kts | 247° |
| 2026-05-07 13:29 | 47.60714 | 14.93793 | 29614 ft | 391 kts | 247° |
| 2026-05-07 13:30 | 47.59658 | 14.90113 | 29886 ft | 393 kts | 247° |
| 2026-05-07 13:30 | 47.58591 | 14.86404 | 30154 ft | 394 kts | 247° |
| 2026-05-07 13:30 | 47.57520 | 14.82683 | 30409 ft | 396 kts | 247° |
| 2026-05-07 13:30 | 47.56442 | 14.78946 | 30663 ft | 397 kts | 247° |
| 2026-05-07 13:31 | 47.55350 | 14.75166 | 30914 ft | 398 kts | 247° |
| 2026-05-07 13:31 | 47.54253 | 14.71373 | 31152 ft | 400 kts | 247° |
| 2026-05-07 13:31 | 47.53164 | 14.67615 | 31376 ft | 401 kts | 247° |
| 2026-05-07 13:31 | 47.52066 | 14.63832 | 31597 ft | 403 kts | 247° |
| 2026-05-07 13:32 | 47.50946 | 14.59978 | 31836 ft | 403 kts | 247° |
| 2026-05-07 13:32 | 47.49839 | 14.56172 | 32108 ft | 403 kts | 247° |
| 2026-05-07 13:32 | 47.48721 | 14.52340 | 32391 ft | 402 kts | 247° |
| 2026-05-07 13:32 | 47.47615 | 14.48550 | 32662 ft | 401 kts | 247° |
| 2026-05-07 13:33 | 47.46506 | 14.44760 | 32928 ft | 401 kts | 247° |
| 2026-05-07 13:33 | 47.45397 | 14.40973 | 33187 ft | 400 kts | 247° |
| 2026-05-07 13:33 | 47.44291 | 14.37204 | 33423 ft | 399 kts | 247° |
| 2026-05-07 13:33 | 47.43198 | 14.33483 | 33653 ft | 399 kts | 246° |
| 2026-05-07 13:34 | 47.42092 | 14.29727 | 33896 ft | 398 kts | 246° |
| 2026-05-07 13:34 | 47.39877 | 14.22214 | 34002 ft | 401 kts | 246° |
| 2026-05-07 13:35 | 47.37627 | 14.14607 | 34009 ft | 410 kts | 246° |
| 2026-05-07 13:35 | 47.35303 | 14.06776 | 34019 ft | 418 kts | 246° |
| 2026-05-07 13:36 | 47.32931 | 13.98810 | 34013 ft | 426 kts | 246° |
| 2026-05-07 13:36 | 47.30508 | 13.90700 | 34005 ft | 433 kts | 246° |
| 2026-05-07 13:37 | 47.28040 | 13.82464 | 34005 ft | 438 kts | 246° |
| 2026-05-07 13:37 | 47.25547 | 13.74171 | 33996 ft | 436 kts | 246° |
| 2026-05-07 13:38 | 47.23052 | 13.65902 | 33996 ft | 436 kts | 246° |
| 2026-05-07 13:38 | 47.20544 | 13.57616 | 33996 ft | 436 kts | 246° |
| 2026-05-07 13:39 | 47.18053 | 13.49412 | 33996 ft | 436 kts | 246° |
| 2026-05-07 13:39 | 47.15554 | 13.41210 | 33995 ft | 436 kts | 246° |
| 2026-05-07 13:40 | 47.13051 | 13.33024 | 33998 ft | 436 kts | 245° |
| 2026-05-07 13:40 | 47.10571 | 13.24935 | 33999 ft | 436 kts | 245° |
| 2026-05-07 13:41 | 47.08064 | 13.16790 | 33999 ft | 436 kts | 245° |
| 2026-05-07 13:41 | 47.05506 | 13.08504 | 33999 ft | 436 kts | 245° |
| 2026-05-07 13:42 | 47.02962 | 13.00288 | 33998 ft | 436 kts | 245° |
| 2026-05-07 13:42 | 47.00544 | 12.92506 | 33997 ft | 436 kts | 245° |
| 2026-05-07 13:43 | 46.98005 | 12.84358 | 33997 ft | 436 kts | 245° |
| 2026-05-07 13:43 | 46.95457 | 12.76209 | 33996 ft | 436 kts | 245° |
| 2026-05-07 13:44 | 46.92923 | 12.68129 | 33996 ft | 436 kts | 245° |
| 2026-05-07 13:44 | 46.90367 | 12.60009 | 33995 ft | 436 kts | 245° |
| 2026-05-07 13:45 | 46.87817 | 12.51931 | 33998 ft | 436 kts | 245° |
| 2026-05-07 13:45 | 46.85569 | 12.44832 | 33998 ft | 436 kts | 245° |
| 2026-05-07 13:46 | 46.83428 | 12.38088 | 33994 ft | 435 kts | 245° |
| 2026-05-07 13:46 | 46.81993 | 12.33579 | 34004 ft | 434 kts | 245° |
| 2026-05-07 13:47 | 46.79410 | 12.25602 | 34003 ft | 434 kts | 244° |
| 2026-05-07 13:47 | 46.76763 | 12.17674 | 34002 ft | 434 kts | 244° |
| 2026-05-07 13:48 | 46.74118 | 12.09783 | 34001 ft | 434 kts | 244° |
| 2026-05-07 13:48 | 46.71463 | 12.01886 | 34001 ft | 434 kts | 244° |
| 2026-05-07 13:49 | 46.68778 | 11.93926 | 34000 ft | 434 kts | 244° |
| 2026-05-07 13:49 | 46.66073 | 11.85931 | 34000 ft | 434 kts | 244° |
| 2026-05-07 13:50 | 46.63311 | 11.77792 | 33999 ft | 434 kts | 244° |
| 2026-05-07 13:50 | 46.60576 | 11.69756 | 33998 ft | 434 kts | 244° |
| 2026-05-07 13:51 | 46.57902 | 11.61925 | 33998 ft | 434 kts | 244° |
| 2026-05-07 13:51 | 46.55223 | 11.54102 | 33997 ft | 434 kts | 244° |
| 2026-05-07 13:52 | 46.52529 | 11.46258 | 33997 ft | 434 kts | 244° |
| 2026-05-07 13:52 | 46.49835 | 11.38438 | 33996 ft | 434 kts | 244° |
| 2026-05-07 13:53 | 46.47108 | 11.30547 | 34002 ft | 434 kts | 243° |
| 2026-05-07 13:53 | 46.44414 | 11.22771 | 34001 ft | 434 kts | 243° |
| 2026-05-07 13:54 | 46.41699 | 11.14962 | 34000 ft | 434 kts | 243° |
| 2026-05-07 13:54 | 46.38971 | 11.07136 | 34000 ft | 434 kts | 243° |
| 2026-05-07 13:55 | 46.36225 | 10.99281 | 33999 ft | 434 kts | 243° |
| 2026-05-07 13:55 | 46.33444 | 10.91351 | 33999 ft | 434 kts | 243° |
| 2026-05-07 13:56 | 46.30697 | 10.83541 | 33998 ft | 434 kts | 243° |
| 2026-05-07 13:56 | 46.27931 | 10.75699 | 33997 ft | 434 kts | 243° |
| 2026-05-07 13:57 | 46.25169 | 10.67893 | 33997 ft | 434 kts | 243° |
| 2026-05-07 13:57 | 46.22409 | 10.60114 | 33997 ft | 434 kts | 243° |
| 2026-05-07 13:58 | 46.19672 | 10.52423 | 33996 ft | 434 kts | 243° |
| 2026-05-07 13:58 | 46.16915 | 10.44699 | 33995 ft | 434 kts | 243° |
| 2026-05-07 13:59 | 46.14158 | 10.36997 | 33995 ft | 434 kts | 243° |
| 2026-05-07 13:59 | 46.11368 | 10.29225 | 34000 ft | 434 kts | 242° |
| 2026-05-07 14:00 | 46.08597 | 10.21527 | 33999 ft | 434 kts | 242° |
| 2026-05-07 14:00 | 46.05806 | 10.13798 | 33999 ft | 434 kts | 242° |
| 2026-05-07 14:01 | 46.03021 | 10.06105 | 33998 ft | 434 kts | 242° |
| 2026-05-07 14:01 | 46.00242 | 9.98451 | 33998 ft | 434 kts | 242° |
| 2026-05-07 14:02 | 45.97443 | 9.90765 | 33997 ft | 434 kts | 242° |
| 2026-05-07 14:02 | 45.94650 | 9.83116 | 33997 ft | 434 kts | 242° |
| 2026-05-07 14:03 | 45.91849 | 9.75468 | 33996 ft | 434 kts | 242° |
| 2026-05-07 14:03 | 45.89030 | 9.67791 | 33999 ft | 434 kts | 242° |
| 2026-05-07 14:04 | 45.86199 | 9.60105 | 33999 ft | 434 kts | 242° |
| 2026-05-07 14:04 | 45.83380 | 9.52473 | 33998 ft | 434 kts | 242° |
| 2026-05-07 14:05 | 45.80562 | 9.44865 | 33998 ft | 434 kts | 242° |
| 2026-05-07 14:05 | 45.77735 | 9.37254 | 33997 ft | 434 kts | 242° |
| 2026-05-07 14:06 | 45.74855 | 9.29521 | 34005 ft | 434 kts | 242° |
| 2026-05-07 14:06 | 45.72013 | 9.21913 | 34002 ft | 434 kts | 242° |
| 2026-05-07 14:07 | 45.69141 | 9.14245 | 34001 ft | 434 kts | 242° |
| 2026-05-07 14:07 | 45.66414 | 9.06486 | 33989 ft | 434 kts | 248° |
| 2026-05-07 14:08 | 45.64577 | 8.98242 | 33991 ft | 435 kts | 260° |
| 2026-05-07 14:08 | 45.64727 | 8.89424 | 33999 ft | 440 kts | 279° |
| 2026-05-07 14:09 | 45.66573 | 8.80939 | 33993 ft | 441 kts | 281° |
| 2026-05-07 14:09 | 45.67455 | 8.72219 | 34001 ft | 440 kts | 275° |
| 2026-05-07 14:10 | 45.68270 | 8.63471 | 33997 ft | 439 kts | 275° |
| 2026-05-07 14:10 | 45.69081 | 8.54724 | 33997 ft | 439 kts | 275° |
| 2026-05-07 14:11 | 45.69887 | 8.45967 | 33997 ft | 439 kts | 275° |
| 2026-05-07 14:11 | 45.70698 | 8.37120 | 33997 ft | 439 kts | 276° |
| 2026-05-07 14:12 | 45.71492 | 8.28438 | 34002 ft | 439 kts | 275° |
| 2026-05-07 14:12 | 45.72280 | 8.19757 | 34001 ft | 438 kts | 275° |
| 2026-05-07 14:12 | 45.72665 | 8.15484 | 34014 ft | 427 kts | 275° |
| 2026-05-07 14:13 | 45.73045 | 8.11248 | 33987 ft | 428 kts | 275° |
| 2026-05-07 14:13 | 45.73425 | 8.06996 | 33636 ft | 424 kts | 275° |
| 2026-05-07 14:13 | 45.73798 | 8.02802 | 33195 ft | 417 kts | 275° |
| 2026-05-07 14:13 | 45.74168 | 7.98623 | 32716 ft | 412 kts | 275° |
| 2026-05-07 14:14 | 45.74529 | 7.94522 | 32267 ft | 411 kts | 275° |
| 2026-05-07 14:14 | 45.74892 | 7.90382 | 31819 ft | 413 kts | 275° |
| 2026-05-07 14:14 | 45.75250 | 7.86291 | 31383 ft | 416 kts | 275° |
| 2026-05-07 14:14 | 45.75612 | 7.82131 | 30941 ft | 418 kts | 275° |
| 2026-05-07 14:15 | 45.75970 | 7.78001 | 30507 ft | 419 kts | 275° |
| 2026-05-07 14:15 | 45.76331 | 7.73826 | 30059 ft | 420 kts | 275° |
| 2026-05-07 14:15 | 45.76693 | 7.69602 | 29595 ft | 421 kts | 276° |
| 2026-05-07 14:15 | 45.77054 | 7.65384 | 29134 ft | 422 kts | 276° |
| 2026-05-07 14:16 | 45.77412 | 7.61186 | 28673 ft | 423 kts | 276° |
| 2026-05-07 14:16 | 45.77768 | 7.56993 | 28215 ft | 424 kts | 276° |
| 2026-05-07 14:16 | 45.78121 | 7.52806 | 27760 ft | 424 kts | 276° |
| 2026-05-07 14:16 | 45.78478 | 7.48560 | 27301 ft | 425 kts | 276° |
| 2026-05-07 14:17 | 45.78836 | 7.44268 | 26836 ft | 426 kts | 276° |
| 2026-05-07 14:17 | 45.79200 | 7.39894 | 26355 ft | 428 kts | 276° |
| 2026-05-07 14:17 | 45.79570 | 7.35416 | 25868 ft | 428 kts | 276° |
| 2026-05-07 14:17 | 45.79929 | 7.31051 | 25405 ft | 429 kts | 275° |
| 2026-05-07 14:18 | 45.80277 | 7.26813 | 24932 ft | 422 kts | 276° |
| 2026-05-07 14:18 | 45.80626 | 7.22532 | 24394 ft | 411 kts | 276° |
| 2026-05-07 14:18 | 45.80969 | 7.18309 | 23864 ft | 404 kts | 276° |
| 2026-05-07 14:18 | 45.81302 | 7.14174 | 23346 ft | 401 kts | 276° |
| 2026-05-07 14:19 | 45.81632 | 7.10076 | 22833 ft | 399 kts | 276° |
| 2026-05-07 14:19 | 45.82178 | 7.06018 | 22248 ft | 400 kts | 289° |
| 2026-05-07 14:19 | 45.83561 | 7.02392 | 21739 ft | 398 kts | 301° |
| 2026-05-07 14:19 | 45.85086 | 6.99066 | 21288 ft | 396 kts | 302° |
| 2026-05-07 14:20 | 45.86602 | 6.95852 | 20789 ft | 394 kts | 302° |
| 2026-05-07 14:20 | 45.88178 | 6.92535 | 20277 ft | 391 kts | 303° |
| 2026-05-07 14:20 | 45.89751 | 6.89226 | 19759 ft | 388 kts | 303° |
| 2026-05-07 14:20 | 45.91341 | 6.85881 | 19230 ft | 385 kts | 303° |
| 2026-05-07 14:21 | 45.92898 | 6.82603 | 18708 ft | 382 kts | 303° |
| 2026-05-07 14:21 | 45.94445 | 6.79342 | 18184 ft | 379 kts | 303° |
| 2026-05-07 14:21 | 45.95977 | 6.76089 | 17659 ft | 376 kts | 303° |
| 2026-05-07 14:21 | 45.97480 | 6.72857 | 17159 ft | 373 kts | 303° |
| 2026-05-07 14:22 | 45.98982 | 6.69619 | 16657 ft | 370 kts | 303° |
| 2026-05-07 14:22 | 46.00457 | 6.66438 | 16161 ft | 368 kts | 303° |
| 2026-05-07 14:22 | 46.01959 | 6.63192 | 15652 ft | 365 kts | 303° |
| 2026-05-07 14:22 | 46.03444 | 6.59981 | 15145 ft | 362 kts | 303° |
| 2026-05-07 14:23 | 46.04905 | 6.56818 | 14642 ft | 360 kts | 303° |
| 2026-05-07 14:23 | 46.06381 | 6.53688 | 14137 ft | 358 kts | 304° |
| 2026-05-07 14:23 | 46.07829 | 6.50623 | 13640 ft | 355 kts | 304° |
| 2026-05-07 14:23 | 46.09230 | 6.47657 | 13155 ft | 353 kts | 304° |
| 2026-05-07 14:24 | 46.10619 | 6.44717 | 12671 ft | 349 kts | 304° |
| 2026-05-07 14:24 | 46.12017 | 6.41755 | 12163 ft | 340 kts | 304° |
| 2026-05-07 14:24 | 46.13388 | 6.38847 | 11619 ft | 329 kts | 304° |
| 2026-05-07 14:24 | 46.14364 | 6.36776 | 11247 ft | 320 kts | 304° |
| 2026-05-07 14:25 | 46.15636 | 6.34073 | 10755 ft | 308 kts | 303° |
| 2026-05-07 14:25 | 46.16819 | 6.31557 | 10326 ft | 295 kts | 303° |
| 2026-05-07 14:25 | 46.18028 | 6.29195 | 9995 ft | 281 kts | 315° |
| 2026-05-07 14:25 | 46.19765 | 6.27937 | 9688 ft | 275 kts | 350° |
| 2026-05-07 14:26 | 46.20934 | 6.27984 | 9530 ft | 277 kts | 10° |
| 2026-05-07 14:26 | 46.22708 | 6.29450 | 9273 ft | 288 kts | 43° |
| 2026-05-07 14:26 | 46.24120 | 6.31714 | 9029 ft | 289 kts | 44° |
| 2026-05-07 14:26 | 46.25443 | 6.33728 | 8618 ft | 289 kts | 43° |